createdAt,value
2022-12-06T00:02:10.779Z,2.47
2022-12-06T00:04:37.555Z,2.20
2022-12-06T00:07:04.151Z,2.53
2022-12-06T00:09:31.510Z,2.25
2022-12-06T00:11:58.334Z,2.40
2022-12-06T00:14:25.258Z,2.30
2022-12-06T00:16:52.133Z,2.10
2022-12-06T00:19:19.700Z,2.15
2022-12-06T00:21:47.408Z,2.35
2022-12-06T00:24:15.398Z,2.30
2022-12-06T00:26:43.202Z,2.28
2022-12-06T00:29:14.100Z,2.05
2022-12-06T00:31:41.199Z,2.10
2022-12-06T00:34:07.924Z,1.95
2022-12-06T00:36:36.445Z,2.00
2022-12-06T00:39:04.489Z,2.10
2022-12-06T00:41:31.050Z,2.00
2022-12-06T00:43:57.615Z,2.10
2022-12-06T00:46:26.104Z,2.10
2022-12-06T00:48:53.544Z,1.73
2022-12-06T00:51:21.234Z,1.80
2022-12-06T00:53:48.299Z,1.67
2022-12-06T00:56:15.487Z,1.63
2022-12-06T00:58:42.140Z,1.80
2022-12-06T01:01:09.570Z,1.95
2022-12-06T01:03:36.471Z,1.90
2022-12-06T01:06:04.614Z,1.70
2022-12-06T01:08:31.165Z,2.00
2022-12-06T01:10:57.641Z,1.77
2022-12-06T01:13:24.195Z,1.55
2022-12-06T01:15:50.669Z,1.88
2022-12-06T01:18:18.360Z,1.50
2022-12-06T01:20:44.854Z,1.40
2022-12-06T01:23:11.327Z,1.60
2022-12-06T01:25:37.893Z,1.55
2022-12-06T01:28:04.645Z,1.63
2022-12-06T01:30:31.329Z,1.42
2022-12-06T01:32:57.998Z,1.30
2022-12-06T01:35:24.519Z,1.50
2022-12-06T01:37:51.048Z,1.30
2022-12-06T01:40:17.638Z,1.25
2022-12-06T01:42:44.115Z,1.42
2022-12-06T01:45:10.850Z,1.55
2022-12-06T01:47:42.748Z,1.48
2022-12-06T01:50:20.057Z,1.38
2022-12-06T01:52:53.539Z,1.45
2022-12-06T01:55:21.092Z,1.30
2022-12-06T01:57:48.377Z,1.08
2022-12-06T02:00:15.070Z,1.30
2022-12-06T02:02:41.632Z,1.20
2022-12-06T02:05:08.338Z,1.20
2022-12-06T02:07:35.356Z,0.98
2022-12-06T02:10:02.681Z,1.00
2022-12-06T02:12:29.293Z,1.35
2022-12-06T02:14:56.812Z,1.15
2022-12-06T02:17:30.719Z,1.10
2022-12-06T02:20:03.684Z,1.08
2022-12-06T02:22:36.410Z,1.00
2022-12-06T02:25:21.696Z,0.90
2022-12-06T02:27:48.309Z,0.90
2022-12-06T02:30:18.972Z,1.02
2022-12-06T02:32:54.799Z,0.90
2022-12-06T02:35:24.548Z,1.00
2022-12-06T02:37:54.112Z,1.00
2022-12-06T02:40:23.809Z,1.20
2022-12-06T02:42:54.195Z,1.15
2022-12-06T02:45:23.390Z,0.98
2022-12-06T02:47:50.218Z,0.88
2022-12-06T02:50:18.840Z,0.90
2022-12-06T02:52:47.126Z,1.05
2022-12-06T02:55:15.690Z,0.70
2022-12-06T02:57:49.718Z,0.90
2022-12-06T03:00:34.979Z,0.88
2022-12-06T03:03:10.378Z,0.73
2022-12-06T03:05:41.930Z,0.60
2022-12-06T03:08:15.666Z,0.77
2022-12-06T03:10:46.838Z,0.70
2022-12-06T03:13:14.335Z,0.75
2022-12-06T03:15:48.255Z,0.80
2022-12-06T03:18:17.888Z,0.50
2022-12-06T03:20:45.955Z,0.60
2022-12-06T03:23:15.139Z,0.60
2022-12-06T03:25:42.410Z,0.60
2022-12-06T03:28:11.427Z,0.70
2022-12-06T03:30:38.108Z,0.60
2022-12-06T03:33:04.888Z,0.80
2022-12-06T03:35:33.081Z,0.60
2022-12-06T03:38:04.442Z,0.57
2022-12-06T03:40:32.640Z,0.60
2022-12-06T03:43:00.224Z,0.70
2022-12-06T03:45:47.255Z,0.60
2022-12-06T03:48:15.788Z,0.70
2022-12-06T03:50:45.283Z,0.60
2022-12-06T03:53:11.798Z,0.50
2022-12-06T03:55:38.438Z,0.50
2022-12-06T03:58:04.889Z,0.50
2022-12-06T04:00:31.412Z,0.47
2022-12-06T04:02:57.882Z,0.50
2022-12-06T04:05:24.443Z,0.50
2022-12-06T04:07:51.109Z,0.60
2022-12-06T04:10:17.799Z,0.50
2022-12-06T04:13:02.933Z,0.40
2022-12-06T04:15:31.302Z,0.50
2022-12-06T04:18:14.261Z,0.70
2022-12-06T04:21:17.430Z,0.40
2022-12-06T04:23:45.474Z,0.50
2022-12-06T04:26:13.219Z,0.50
2022-12-06T04:28:58.339Z,0.57
2022-12-06T04:31:43.410Z,0.50
2022-12-06T04:34:28.316Z,0.50
2022-12-06T04:37:13.099Z,0.50
2022-12-06T04:39:39.705Z,0.50
2022-12-06T04:42:24.991Z,0.50
2022-12-06T04:44:51.672Z,0.82
2022-12-06T04:47:18.466Z,0.40
2022-12-06T04:49:45.046Z,0.30
2022-12-06T04:52:11.604Z,0.50
2022-12-06T04:54:39.275Z,0.40
2022-12-06T04:57:11.223Z,0.40
2022-12-06T04:59:39.009Z,0.35
2022-12-06T05:02:05.829Z,0.40
2022-12-06T05:04:32.610Z,0.50
2022-12-06T05:06:59.265Z,0.52
2022-12-06T05:09:25.800Z,0.40
2022-12-06T05:11:52.448Z,0.32
2022-12-06T05:14:19.036Z,0.50
2022-12-06T05:16:45.724Z,0.50
2022-12-06T05:19:13.354Z,0.60
2022-12-06T05:21:40.077Z,0.40
2022-12-06T05:24:06.861Z,0.50
2022-12-06T05:26:33.404Z,0.45
2022-12-06T05:28:59.966Z,0.47
2022-12-06T05:31:26.856Z,0.40
2022-12-06T05:33:53.751Z,0.45
2022-12-06T05:36:24.589Z,0.40
2022-12-06T05:38:52.000Z,0.35
2022-12-06T05:41:22.158Z,0.50
2022-12-06T05:43:48.952Z,0.50
2022-12-06T05:46:15.595Z,0.32
2022-12-06T05:48:42.123Z,0.30
2022-12-06T05:51:08.623Z,0.50
2022-12-06T05:53:35.174Z,0.40
2022-12-06T05:56:06.138Z,0.40
2022-12-06T05:58:32.793Z,0.50
2022-12-06T06:00:59.452Z,0.50
2022-12-06T06:03:26.172Z,0.40
2022-12-06T06:05:55.936Z,0.55
2022-12-06T06:08:22.494Z,0.52
2022-12-06T06:10:49.156Z,0.30
2022-12-06T06:13:15.677Z,0.50
2022-12-06T06:15:42.120Z,0.50
2022-12-06T06:18:08.648Z,0.38
2022-12-06T06:20:35.093Z,0.30
2022-12-06T06:23:01.623Z,0.40
2022-12-06T06:25:28.110Z,0.40
2022-12-06T06:27:54.988Z,0.60
2022-12-06T06:30:21.782Z,0.60
2022-12-06T06:32:48.376Z,0.50
2022-12-06T06:35:14.848Z,0.40
2022-12-06T06:37:41.307Z,0.40
2022-12-06T06:40:08.078Z,0.50
2022-12-06T06:42:34.682Z,0.57
2022-12-06T06:45:01.120Z,0.50
2022-12-06T06:47:27.574Z,0.50
2022-12-06T06:49:54.083Z,0.40
2022-12-06T06:52:20.559Z,0.55
2022-12-06T06:54:47.071Z,0.40
2022-12-06T06:57:17.626Z,0.50
2022-12-06T06:59:45.419Z,0.47
2022-12-06T07:02:15.281Z,0.65
2022-12-06T07:04:42.452Z,0.40
2022-12-06T07:07:09.098Z,0.60
2022-12-06T07:09:35.607Z,0.50
2022-12-06T07:12:02.423Z,0.38
2022-12-06T07:14:28.843Z,0.40
2022-12-06T07:16:55.483Z,0.40
2022-12-06T07:19:22.091Z,0.40
2022-12-06T07:21:49.142Z,0.47
2022-12-06T07:24:15.659Z,0.30
2022-12-06T07:26:42.193Z,0.50
2022-12-06T07:29:08.721Z,0.40
2022-12-06T07:31:35.521Z,0.40
2022-12-06T07:34:02.716Z,0.55
2022-12-06T07:36:30.259Z,0.40
2022-12-06T07:38:57.539Z,0.40
2022-12-06T07:41:43.615Z,0.40
2022-12-06T07:44:29.535Z,0.50
2022-12-06T07:46:56.454Z,0.50
2022-12-06T07:49:23.117Z,0.50
2022-12-06T07:51:49.624Z,0.40
2022-12-06T07:54:16.415Z,0.57
2022-12-06T07:56:43.566Z,0.52
2022-12-06T07:59:10.134Z,0.55
2022-12-06T08:01:36.890Z,0.40
2022-12-06T08:04:04.455Z,0.50
2022-12-06T08:06:31.624Z,0.40
2022-12-06T08:08:58.858Z,0.50
2022-12-06T08:11:25.454Z,0.40
2022-12-06T08:13:52.289Z,0.50
2022-12-06T08:16:18.907Z,0.40
2022-12-06T08:18:45.443Z,0.50
2022-12-06T08:21:12.077Z,0.50
2022-12-06T08:23:38.533Z,0.50
2022-12-06T08:26:06.311Z,0.65
2022-12-06T08:28:33.472Z,0.60
2022-12-06T08:31:03.335Z,0.40
2022-12-06T08:33:32.402Z,0.60
2022-12-06T08:35:59.002Z,0.52
2022-12-06T08:38:25.516Z,6.90
2022-12-06T08:40:51.954Z,6.63
2022-12-06T08:43:18.392Z,4.45
2022-12-06T08:45:44.862Z,2.72
2022-12-06T08:48:11.343Z,2.10
2022-12-06T08:50:38.805Z,2.25
2022-12-06T08:53:05.302Z,1.40
2022-12-06T08:55:31.803Z,1.15
2022-12-06T08:57:58.362Z,1.00
2022-12-06T09:00:24.970Z,0.75
2022-12-06T09:02:51.504Z,0.65
2022-12-06T09:05:17.943Z,0.70
2022-12-06T09:07:44.498Z,0.95
2022-12-06T09:10:11.367Z,0.80
2022-12-06T09:12:37.968Z,0.60
2022-12-06T09:15:04.694Z,0.70
2022-12-06T09:17:31.132Z,0.60
2022-12-06T09:20:02.088Z,0.70
2022-12-06T09:22:31.851Z,0.50
2022-12-06T09:24:58.302Z,0.63
2022-12-06T09:27:24.782Z,0.50
2022-12-06T09:29:51.242Z,0.60
2022-12-06T09:32:17.720Z,0.60
2022-12-06T09:34:44.232Z,0.70
2022-12-06T09:37:12.094Z,0.50
2022-12-06T09:39:43.850Z,0.60
2022-12-06T09:42:25.574Z,0.60
2022-12-06T09:45:10.542Z,0.50
2022-12-06T09:47:36.975Z,0.20
2022-12-06T09:50:39.022Z,0.20
2022-12-06T09:53:14.348Z,0.20
2022-12-06T09:55:50.117Z,0.20
2022-12-06T09:58:19.214Z,0.20
2022-12-06T10:00:48.511Z,0.20
2022-12-06T10:03:33.650Z,0.13
2022-12-06T10:06:05.522Z,0.22
2022-12-06T10:08:32.118Z,0.25
2022-12-06T10:11:08.326Z,0.20
2022-12-06T10:13:38.042Z,0.15
2022-12-06T10:16:04.731Z,0.20
2022-12-06T10:18:49.663Z,0.20
2022-12-06T10:21:42.510Z,0.22
2022-12-06T10:24:27.362Z,0.13
2022-12-06T10:26:55.219Z,0.20
2022-12-06T10:29:40.602Z,0.20
2022-12-06T10:32:27.262Z,0.20
2022-12-06T10:34:55.960Z,0.20
2022-12-06T10:37:41.145Z,0.10
2022-12-06T10:40:22.201Z,0.20
2022-12-06T10:42:48.667Z,0.28
2022-12-06T10:45:35.132Z,0.10
2022-12-06T10:48:02.916Z,0.20
2022-12-06T10:50:31.175Z,0.20
2022-12-06T10:53:15.396Z,0.20
2022-12-06T10:56:08.053Z,0.20
2022-12-06T10:58:44.221Z,0.20
2022-12-06T11:01:17.125Z,0.20
2022-12-06T11:03:58.722Z,0.20
2022-12-06T11:06:32.448Z,0.20
2022-12-06T11:09:10.907Z,0.20
2022-12-06T11:11:39.102Z,0.20
2022-12-06T11:14:18.865Z,0.20
2022-12-06T11:16:51.886Z,0.20
2022-12-06T11:19:31.466Z,0.20
2022-12-06T11:22:16.566Z,0.25
2022-12-06T11:24:48.789Z,0.20
2022-12-06T11:27:21.826Z,0.20
2022-12-06T11:29:49.759Z,0.25
2022-12-06T11:32:16.936Z,0.20
2022-12-06T11:34:47.286Z,0.20
2022-12-06T11:37:16.207Z,0.20
2022-12-06T11:39:42.991Z,0.30
2022-12-06T11:42:11.475Z,0.30
2022-12-06T11:44:46.431Z,0.20
2022-12-06T11:47:17.554Z,0.20
2022-12-06T11:49:45.297Z,0.20
2022-12-06T11:52:18.250Z,0.30
2022-12-06T11:54:48.551Z,0.20
2022-12-06T11:57:35.394Z,0.20
2022-12-06T12:00:11.450Z,0.25
2022-12-06T12:02:38.017Z,0.17
2022-12-06T12:05:11.853Z,0.20
2022-12-06T12:07:39.313Z,0.30
2022-12-06T12:10:24.258Z,0.20
2022-12-06T12:13:09.531Z,0.28
2022-12-06T12:15:36.631Z,0.20
2022-12-06T12:18:04.472Z,0.20
2022-12-06T12:20:33.983Z,0.17
2022-12-06T12:23:03.777Z,0.10
2022-12-06T12:25:31.471Z,0.35
2022-12-06T12:27:59.393Z,0.20
2022-12-06T12:30:26.073Z,0.20
2022-12-06T12:33:09.717Z,0.20
2022-12-06T12:35:36.246Z,0.20
2022-12-06T12:38:13.312Z,0.20
2022-12-06T12:40:55.211Z,0.20
2022-12-06T12:43:25.951Z,0.20
2022-12-06T12:46:21.835Z,0.28
2022-12-06T12:48:50.204Z,0.20
2022-12-06T12:51:21.865Z,0.20
2022-12-06T12:53:54.030Z,0.20
2022-12-06T12:56:21.411Z,0.20
2022-12-06T12:58:49.671Z,0.30
2022-12-06T13:01:19.110Z,0.20
2022-12-06T13:03:51.400Z,0.17
2022-12-06T13:06:30.011Z,0.30
2022-12-06T13:08:59.414Z,0.10
2022-12-06T13:11:26.211Z,0.20
2022-12-06T13:13:54.051Z,0.22
2022-12-06T13:16:34.244Z,0.20
2022-12-06T13:19:01.791Z,0.20
2022-12-06T13:21:32.631Z,0.20
2022-12-06T13:24:05.850Z,0.20
2022-12-06T13:26:33.971Z,0.20
2022-12-06T13:29:02.811Z,0.20
2022-12-06T13:31:33.210Z,0.25
2022-12-06T13:34:22.828Z,0.20
2022-12-06T13:36:52.359Z,0.20
2022-12-06T13:39:30.917Z,0.20
2022-12-06T13:42:19.943Z,0.20
2022-12-06T13:44:46.427Z,0.20
2022-12-06T13:47:28.138Z,0.20
2022-12-06T13:50:13.125Z,0.10
2022-12-06T13:52:42.635Z,0.17
2022-12-06T13:55:24.561Z,0.20
2022-12-06T13:57:57.009Z,0.20
2022-12-06T14:00:29.755Z,0.20
2022-12-06T14:02:56.376Z,0.10
2022-12-06T14:05:43.443Z,0.20
2022-12-06T14:08:18.417Z,0.20
2022-12-06T14:10:46.636Z,0.20
2022-12-06T14:13:17.995Z,0.20
2022-12-06T14:15:50.132Z,0.20
2022-12-06T14:18:23.262Z,0.10
2022-12-06T14:20:52.284Z,0.20
2022-12-06T14:23:43.714Z,0.20
2022-12-06T14:26:12.818Z,0.30
2022-12-06T14:28:40.990Z,0.20
2022-12-06T14:31:18.499Z,0.20
2022-12-06T14:33:46.193Z,0.20
2022-12-06T14:36:43.784Z,0.30
2022-12-06T14:39:19.101Z,0.20
2022-12-06T14:42:22.943Z,0.20
2022-12-06T14:44:51.367Z,0.20
2022-12-06T14:47:20.457Z,0.13
2022-12-06T14:50:13.932Z,0.20
2022-12-06T14:52:59.502Z,0.20
2022-12-06T14:55:27.742Z,0.20
2022-12-06T14:57:59.847Z,0.20
2022-12-06T15:00:39.487Z,0.20
2022-12-06T15:03:23.086Z,0.20
2022-12-06T15:05:58.154Z,0.20
2022-12-06T15:08:29.506Z,0.20
2022-12-06T15:11:01.591Z,0.20
2022-12-06T15:13:35.616Z,0.20
2022-12-06T15:16:04.816Z,0.30
2022-12-06T15:18:43.526Z,0.20
2022-12-06T15:21:15.415Z,0.20
2022-12-06T15:23:49.840Z,0.20
2022-12-06T15:26:24.796Z,0.20
2022-12-06T15:28:53.257Z,0.20
2022-12-06T15:31:23.673Z,0.20
2022-12-06T15:33:56.406Z,0.20
2022-12-06T15:36:37.596Z,0.20
2022-12-06T15:39:13.204Z,0.30
2022-12-06T15:41:54.376Z,0.20
2022-12-06T15:44:24.871Z,0.20
2022-12-06T15:46:54.651Z,0.20
2022-12-06T15:49:22.795Z,0.20
2022-12-06T15:51:50.287Z,0.20
2022-12-06T15:54:20.094Z,0.20
2022-12-06T15:57:00.086Z,0.20
2022-12-06T15:59:27.724Z,0.20
2022-12-06T16:01:55.251Z,0.20
2022-12-06T16:04:33.425Z,0.20
2022-12-06T16:07:01.247Z,0.20
2022-12-06T16:09:28.516Z,0.30
2022-12-06T16:11:59.165Z,0.20
2022-12-06T16:14:28.196Z,0.20
2022-12-06T16:16:56.446Z,0.20
2022-12-06T16:19:50.016Z,0.30
2022-12-06T16:22:45.376Z,0.25
2022-12-06T16:25:13.362Z,0.20
2022-12-06T16:27:43.815Z,0.20
2022-12-06T16:30:10.885Z,0.30
2022-12-06T16:32:49.176Z,0.20
2022-12-06T16:35:23.597Z,0.20
2022-12-06T16:37:53.595Z,0.20
2022-12-06T16:40:24.783Z,0.20
2022-12-06T16:42:54.825Z,0.20
2022-12-06T16:45:32.446Z,0.20
2022-12-06T16:48:02.548Z,0.20
2022-12-06T16:50:29.886Z,0.20
2022-12-06T16:52:57.480Z,0.20
2022-12-06T16:55:25.585Z,0.20
2022-12-06T16:57:52.712Z,0.20
2022-12-06T17:00:19.405Z,0.10
2022-12-06T17:02:45.965Z,0.20
2022-12-06T17:05:23.132Z,0.20
2022-12-06T17:07:50.359Z,0.20
2022-12-06T17:10:18.267Z,0.10
2022-12-06T17:12:45.846Z,0.20
2022-12-06T17:15:16.765Z,0.20
2022-12-06T17:17:43.350Z,0.20
2022-12-06T17:20:11.123Z,0.10
2022-12-06T17:22:37.823Z,0.20
2022-12-06T17:25:04.741Z,0.20
2022-12-06T17:27:31.328Z,0.20
2022-12-06T17:29:57.862Z,0.20
2022-12-06T17:32:24.557Z,0.20
2022-12-06T17:34:51.023Z,0.20
2022-12-06T17:37:17.587Z,0.20
2022-12-06T17:39:44.519Z,0.20
2022-12-06T17:42:30.631Z,0.20
2022-12-06T17:44:57.863Z,0.20
2022-12-06T17:47:24.614Z,0.20
2022-12-06T17:49:51.776Z,0.20
2022-12-06T17:52:18.679Z,0.20
2022-12-06T17:54:45.186Z,0.20
2022-12-06T17:57:15.421Z,0.20
2022-12-06T17:59:41.917Z,0.20
2022-12-06T18:02:15.898Z,0.20
2022-12-06T18:04:44.343Z,0.20
2022-12-06T18:07:11.997Z,0.15
2022-12-06T18:09:38.547Z,0.20
2022-12-06T18:12:05.127Z,0.20
2022-12-06T18:14:31.768Z,0.22
2022-12-06T18:16:58.379Z,0.20
2022-12-06T18:19:25.188Z,0.20
2022-12-06T18:21:53.187Z,0.20
2022-12-06T18:24:22.094Z,0.20
2022-12-06T18:26:50.610Z,0.20
2022-12-06T18:29:20.794Z,0.10
2022-12-06T18:31:47.517Z,0.20
2022-12-06T18:34:14.148Z,0.20
2022-12-06T18:36:40.959Z,0.20
2022-12-06T18:39:14.448Z,0.20
2022-12-06T18:41:42.425Z,0.20
2022-12-06T18:44:10.410Z,0.20
2022-12-06T18:46:39.395Z,0.20
2022-12-06T18:49:06.897Z,0.20
2022-12-06T18:51:34.587Z,0.20
2022-12-06T18:54:03.218Z,0.20
2022-12-06T18:56:30.418Z,0.20
2022-12-06T18:59:01.037Z,0.20
2022-12-06T19:01:29.170Z,0.20
2022-12-06T19:03:57.527Z,0.20
2022-12-06T19:06:25.305Z,0.30
2022-12-06T19:08:53.568Z,0.20
2022-12-06T19:11:20.697Z,0.20
2022-12-06T19:13:51.140Z,0.20
2022-12-06T19:16:18.449Z,0.20
2022-12-06T19:18:44.940Z,0.13
2022-12-06T19:21:11.418Z,0.20
2022-12-06T19:23:37.868Z,0.20
2022-12-06T19:26:04.877Z,0.20
2022-12-06T19:28:31.959Z,0.30
2022-12-06T19:30:59.302Z,0.20
2022-12-06T19:33:26.019Z,0.30
2022-12-06T19:36:00.029Z,0.10
2022-12-06T19:38:26.878Z,0.20
2022-12-06T19:40:53.859Z,0.20
2022-12-06T19:43:44.990Z,0.20
2022-12-06T19:46:13.517Z,0.20
2022-12-06T19:48:40.139Z,0.20
2022-12-06T19:51:07.308Z,0.13
2022-12-06T19:53:37.569Z,0.20
2022-12-06T19:56:05.918Z,0.20
2022-12-06T19:58:32.518Z,0.20
2022-12-06T20:00:59.250Z,0.20
2022-12-06T20:03:25.931Z,0.20
2022-12-06T20:06:02.818Z,0.20
2022-12-06T20:08:29.297Z,0.20
2022-12-06T20:10:56.140Z,0.20
2022-12-06T20:13:23.748Z,0.20
2022-12-06T20:15:50.323Z,0.20
2022-12-06T20:18:18.751Z,0.20
2022-12-06T20:20:48.650Z,0.20
2022-12-06T20:23:15.159Z,0.20
2022-12-06T20:25:42.554Z,0.20
2022-12-06T20:28:13.357Z,0.20
2022-12-06T20:30:40.287Z,0.10
2022-12-06T20:33:06.766Z,0.28
2022-12-06T20:35:36.448Z,0.28
2022-12-06T20:38:03.048Z,0.20
2022-12-06T20:40:31.552Z,0.20
2022-12-06T20:42:58.405Z,0.20
2022-12-06T20:45:25.129Z,0.20
2022-12-06T20:47:51.988Z,0.20
2022-12-06T20:50:18.673Z,0.30
2022-12-06T20:52:45.308Z,0.20
2022-12-06T20:55:11.889Z,0.20
2022-12-06T20:57:38.492Z,0.10
2022-12-06T21:00:07.897Z,0.20
2022-12-06T21:02:34.735Z,0.30
2022-12-06T21:05:01.294Z,0.20
2022-12-06T21:07:27.869Z,0.17
2022-12-06T21:09:54.389Z,0.20
2022-12-06T21:12:22.451Z,0.20
2022-12-06T21:14:49.010Z,0.25
2022-12-06T21:17:15.566Z,0.30
2022-12-06T21:19:42.694Z,0.30
2022-12-06T21:22:09.340Z,0.20
2022-12-06T21:24:36.073Z,0.20
2022-12-06T21:27:02.649Z,0.20
2022-12-06T21:29:31.206Z,0.17
2022-12-06T21:31:59.618Z,0.20
2022-12-06T21:34:26.151Z,0.20
2022-12-06T21:36:52.688Z,0.28
2022-12-06T21:39:19.384Z,0.20
2022-12-06T21:41:46.052Z,0.10
2022-12-06T21:44:12.828Z,0.20
2022-12-06T21:46:39.734Z,0.20
2022-12-06T21:49:06.528Z,0.20
2022-12-06T21:51:33.108Z,0.10
2022-12-06T21:54:00.008Z,0.20
2022-12-06T21:56:28.289Z,0.30
2022-12-06T21:58:55.230Z,0.30
2022-12-06T22:01:24.228Z,0.20
2022-12-06T22:03:51.953Z,0.20
2022-12-06T22:06:18.608Z,0.25
2022-12-06T22:08:45.932Z,0.20
2022-12-06T22:11:16.876Z,0.20
2022-12-06T22:13:43.869Z,0.20
2022-12-06T22:16:11.165Z,0.20
2022-12-06T22:18:44.425Z,0.20
2022-12-06T22:21:16.929Z,0.20
2022-12-06T22:23:43.907Z,0.20
2022-12-06T22:26:12.708Z,0.20
2022-12-06T22:28:39.348Z,0.20
2022-12-06T22:31:14.017Z,0.20
2022-12-06T22:33:41.132Z,0.20
2022-12-06T22:36:08.168Z,0.20
2022-12-06T22:38:35.048Z,0.17
2022-12-06T22:41:02.287Z,0.30
2022-12-06T22:43:29.028Z,0.20
2022-12-06T22:45:55.788Z,0.30
2022-12-06T22:48:22.328Z,0.30
2022-12-06T22:50:48.849Z,0.20
2022-12-06T22:53:15.388Z,0.20
2022-12-06T22:55:41.877Z,0.20
2022-12-06T22:58:08.424Z,0.20
2022-12-06T23:00:35.008Z,0.20
2022-12-06T23:03:01.548Z,0.30
2022-12-06T23:05:28.127Z,0.20
2022-12-06T23:07:57.041Z,0.30
2022-12-06T23:10:23.690Z,0.10
2022-12-06T23:12:50.208Z,0.20
2022-12-06T23:15:16.930Z,0.20
2022-12-06T23:17:43.428Z,0.20
2022-12-06T23:20:10.085Z,0.20
2022-12-06T23:22:36.669Z,0.20
2022-12-06T23:25:03.208Z,0.20
2022-12-06T23:27:29.967Z,0.20
2022-12-06T23:29:56.513Z,0.20
2022-12-06T23:32:23.435Z,0.20
2022-12-06T23:34:50.096Z,0.20
2022-12-06T23:37:16.708Z,0.10
2022-12-06T23:39:43.289Z,0.20
2022-12-06T23:42:09.787Z,0.20
2022-12-06T23:44:37.216Z,0.20
2022-12-06T23:47:03.874Z,0.20
2022-12-06T23:49:30.789Z,0.20
2022-12-06T23:51:57.413Z,0.20
2022-12-06T23:54:23.923Z,0.20
2022-12-06T23:56:50.394Z,0.20
2022-12-06T23:59:17.349Z,0.20
